Time;durP1;ratioP1;P1;durP2;ratioP2;P2;SDS_P1;SDS_P2;PMS_P1;PMS_P2;Temp;Humidity;BMP_temperature;BMP_pressure;BME280_temperature;BME280_humidity;BME280_pressure;Samples;Min_cycle;Max_cycle;Signal;HPM_P1;HPM_P2
2023/04/11 00:00:39;;;;;;;1.42;0.70;;;;;;;12.25;40.88;100589.25;5006186;28;20058;-79
2023/04/11 00:03:07;;;;;;;1.77;0.63;;;;;;;12.23;40.95;100587.66;5005073;28;20062;-78
2023/04/11 00:05:35;;;;;;;2.67;1.02;;;;;;;12.22;40.64;100578.56;4989080;28;20105;-79
2023/04/11 00:08:05;;;;;;;1.73;0.75;;;;;;;12.24;40.66;100598.47;4991130;28;20065;-80
2023/04/11 00:10:32;;;;;;;2.88;0.95;;;;;;;12.21;40.94;100585.09;4991325;28;20046;-80
2023/04/11 00:13:00;;;;;;;1.70;0.70;;;;;;;12.21;40.39;100589.72;5004064;28;20049;-79
2023/04/11 00:15:28;;;;;;;1.33;0.70;;;;;;;12.20;40.67;100587.97;5011818;28;20065;-79
2023/04/11 00:17:57;;;;;;;1.15;0.70;;;;;;;12.18;40.76;100582.63;5003007;28;20046;-79
2023/04/11 00:20:25;;;;;;;2.00;0.80;;;;;;;12.18;40.53;100579.91;5011393;28;20049;-79
2023/04/11 00:22:53;;;;;;;1.67;0.80;;;;;;;12.17;40.64;100585.53;5014196;28;20042;-79
2023/04/11 00:25:23;;;;;;;1.63;0.80;;;;;;;12.19;40.52;100589.00;4999990;28;20053;-79
2023/04/11 00:27:51;;;;;;;1.90;0.80;;;;;;;12.16;40.54;100581.06;5008950;28;20042;-78
2023/04/11 00:30:19;;;;;;;2.15;1.00;;;;;;;12.15;40.67;100573.84;5009900;28;20120;-79
2023/04/11 00:32:48;;;;;;;2.95;0.93;;;;;;;12.15;41.00;100582.94;5012070;28;20057;-80
2023/04/11 00:35:16;;;;;;;3.10;1.00;;;;;;;12.15;41.02;100582.06;5000220;28;20553;-79
2023/04/11 00:37:45;;;;;;;3.42;1.08;;;;;;;12.13;40.61;100576.72;5004250;28;20049;-78
2023/04/11 00:40:16;;;;;;;3.20;0.90;;;;;;;12.13;40.46;100571.22;5016075;28;20054;-79
2023/04/11 00:42:45;;;;;;;2.53;0.93;;;;;;;12.13;40.75;100574.84;5012058;28;20060;-79
2023/04/11 00:45:13;;;;;;;2.50;0.95;;;;;;;12.09;40.79;100572.56;5013202;28;20084;-79
2023/04/11 00:47:42;;;;;;;3.60;1.20;;;;;;;12.09;40.21;100584.41;5003203;28;20049;-78
2023/04/11 00:50:12;;;;;;;4.32;1.35;;;;;;;12.10;40.84;100575.16;5007075;28;20042;-79
2023/04/11 00:52:41;;;;;;;3.97;1.10;;;;;;;12.09;40.27;100584.41;5007051;28;20050;-80
2023/04/11 00:55:10;;;;;;;4.95;1.38;;;;;;;12.08;40.40;100577.19;5006722;28;20120;-80
2023/04/11 00:57:38;;;;;;;4.78;1.50;;;;;;;12.07;40.47;100586.44;5000446;28;20043;-79
2023/04/11 01:00:09;;;;;;;4.63;1.20;;;;;;;12.05;40.75;100582.97;5009190;28;20070;-80
2023/04/11 01:02:41;;;;;;;4.90;1.48;;;;;;;12.04;40.61;100585.88;5008993;28;20057;-79
2023/04/11 01:05:12;;;;;;;2.70;1.10;;;;;;;12.00;40.42;100585.31;5006316;28;20038;-79
2023/04/11 01:07:41;;;;;;;4.32;1.52;;;;;;;11.99;40.23;100572.59;5018953;28;20056;-79
2023/04/11 01:10:10;;;;;;;3.00;1.40;;;;;;;11.98;40.82;100572.75;5027756;28;20053;-79
2023/04/11 01:12:39;;;;;;;3.63;1.80;;;;;;;11.98;40.65;100570.00;5018635;28;20644;-79
2023/04/11 01:15:09;;;;;;;3.63;1.20;;;;;;;11.95;40.50;100571.19;4995764;28;20038;-79
2023/04/11 01:17:37;;;;;;;4.38;1.27;;;;;;;11.91;40.43;100561.53;5000230;28;20781;-79
2023/04/11 01:20:08;;;;;;;4.35;1.38;;;;;;;11.91;40.28;100567.00;4994715;28;20113;-80
2023/04/11 01:22:38;;;;;;;5.32;1.30;;;;;;;11.90;40.24;100565.28;5012424;28;20049;-79
2023/04/11 01:25:08;;;;;;;6.15;1.50;;;;;;;11.89;40.35;100565.41;5000004;28;20052;-79
2023/04/11 01:27:37;;;;;;;5.72;1.25;;;;;;;11.85;40.75;100567.63;5001661;28;20234;-79
2023/04/11 01:30:07;;;;;;;4.65;1.38;;;;;;;11.86;40.37;100574.84;5001501;28;20080;-79
2023/04/11 01:32:35;;;;;;;5.63;1.60;;;;;;;11.82;40.38;100567.91;5004029;28;20081;-79
2023/04/11 01:35:05;;;;;;;4.10;1.42;;;;;;;11.82;40.18;100565.16;5007395;28;20042;-79
2023/04/11 01:37:33;;;;;;;4.88;1.80;;;;;;;11.80;40.65;100558.13;4991162;28;20425;-80
2023/04/11 01:40:01;;;;;;;4.45;1.45;;;;;;;11.78;40.32;100561.00;5002871;28;20516;-79
2023/04/11 01:42:32;;;;;;;6.85;1.83;;;;;;;11.79;40.26;100551.78;4991506;28;20068;-79
2023/04/11 01:45:01;;;;;;;7.80;1.60;;;;;;;11.77;40.05;100556.53;4997754;28;20042;-79
2023/04/11 01:47:29;;;;;;;5.40;1.48;;;;;;;11.74;40.68;100552.19;4987180;28;20326;-79
2023/04/11 01:49:57;;;;;;;4.55;1.52;;;;;;;11.73;40.31;100561.44;4996589;28;20077;-79
2023/04/11 01:52:25;;;;;;;8.70;2.10;;;;;;;11.73;40.65;100571.53;5012392;28;20054;-79
2023/04/11 01:54:53;;;;;;;6.10;1.70;;;;;;;11.70;40.18;100572.72;5002830;28;20038;-79
2023/04/11 01:57:21;;;;;;;6.15;1.65;;;;;;;11.68;40.76;100569.25;4999393;28;20136;-79
2023/04/11 01:59:50;;;;;;;6.80;1.60;;;;;;;11.70;40.70;100577.34;5002822;28;20383;-79
2023/04/11 02:02:18;;;;;;;4.47;1.35;;;;;;;11.67;40.33;100583.09;4996108;28;20050;-79
2023/04/11 02:04:46;;;;;;;5.13;1.63;;;;;;;11.65;40.69;100577.75;5006499;28;20401;-79
2023/04/11 02:07:14;;;;;;;4.97;1.75;;;;;;;11.64;40.81;100589.75;5001819;28;20497;-79
2023/04/11 02:09:42;;;;;;;5.95;1.95;;;;;;;11.64;40.51;100588.88;4995048;28;20608;-79
2023/04/11 02:12:10;;;;;;;6.22;1.70;;;;;;;11.63;40.27;100587.16;4993348;28;20044;-78
2023/04/11 02:14:41;;;;;;;7.43;1.88;;;;;;;11.63;40.64;100584.44;5004251;28;20046;-78
2023/04/11 02:17:11;;;;;;;5.93;1.95;;;;;;;11.62;40.67;100585.44;5006455;28;20038;-78
2023/04/11 02:19:39;;;;;;;4.75;1.95;;;;;;;11.60;40.35;100588.28;5002660;28;20400;-79
2023/04/11 02:22:08;;;;;;;5.90;1.70;;;;;;;11.59;40.23;100589.28;5008713;28;20046;-79
2023/04/11 02:24:36;;;;;;;5.50;1.83;;;;;;;11.58;40.72;100583.97;4998023;28;20107;-79
2023/04/11 02:27:04;;;;;;;5.90;1.75;;;;;;;11.58;40.50;100592.19;5004961;28;20068;-78
2023/04/11 02:29:32;;;;;;;7.25;1.70;;;;;;;11.58;40.48;100592.19;5010808;28;20121;-79
2023/04/11 02:32:00;;;;;;;5.80;1.60;;;;;;;11.56;40.66;100585.97;5012453;28;20055;-78
2023/04/11 02:34:29;;;;;;;5.38;1.60;;;;;;;11.57;40.58;100585.84;5024154;28;20105;-77
2023/04/11 02:36:57;;;;;;;6.22;1.70;;;;;;;11.55;40.09;100589.75;5019189;28;20037;-79
2023/04/11 02:39:25;;;;;;;7.60;1.80;;;;;;;11.53;40.72;100591.78;5015774;28;20077;-79
2023/04/11 02:41:56;;;;;;;5.28;1.38;;;;;;;11.51;40.09;100600.13;5014309;28;20125;-79
2023/04/11 02:44:25;;;;;;;6.55;2.10;;;;;;;11.51;40.57;100602.00;5009078;28;20050;-79
2023/04/11 02:46:54;;;;;;;7.32;1.95;;;;;;;11.50;40.38;100605.75;5000059;28;20110;-79
2023/04/11 02:49:24;;;;;;;6.10;1.77;;;;;;;11.48;40.30;100608.63;5006740;28;20052;-79
2023/04/11 02:51:54;;;;;;;6.15;2.00;;;;;;;11.48;40.65;100608.63;5007403;28;20053;-79
2023/04/11 02:54:22;;;;;;;6.05;2.03;;;;;;;11.46;40.62;100615.28;5004353;28;20050;-79
2023/04/11 02:56:49;;;;;;;5.20;1.55;;;;;;;11.45;40.15;100616.31;5005289;28;20046;-77
2023/04/11 02:59:18;;;;;;;5.22;1.58;;;;;;;11.43;40.48;100616.44;4998563;28;20117;-78
2023/04/11 03:01:45;;;;;;;7.75;2.05;;;;;;;11.40;40.42;100613.97;4991947;28;20046;-78
2023/04/11 03:04:14;;;;;;;6.75;1.65;;;;;;;11.38;40.18;100612.41;4990242;28;20046;-79
2023/04/11 03:07:11;;;;;;;7.05;2.08;;;;;;;11.35;40.79;100616.31;5008771;28;20046;-78
2023/04/11 03:09:39;;;;;;;7.03;1.75;;;;;;;11.32;40.70;100620.19;5001770;28;20046;-79
2023/04/11 03:12:07;;;;;;;7.18;1.80;;;;;;;11.31;40.52;100618.44;5007457;28;20045;-79
2023/04/11 03:14:42;;;;;;;9.13;1.95;;;;;;;11.30;40.04;100604.94;5009739;28;20096;-79
2023/04/11 03:17:10;;;;;;;7.28;2.03;;;;;;;11.30;40.33;100618.63;4994790;28;20042;-79
2023/04/11 03:19:38;;;;;;;6.82;2.53;;;;;;;11.27;40.13;100617.03;4992422;28;20090;-79
2023/04/11 03:22:05;;;;;;;8.20;2.08;;;;;;;11.25;40.22;100616.31;5006118;28;20134;-78
2023/04/11 03:24:35;;;;;;;7.70;1.95;;;;;;;11.26;39.93;100619.91;5015015;28;20046;-78
2023/04/11 03:27:02;;;;;;;11.55;2.70;;;;;;;11.22;40.13;100619.34;5014798;28;20065;-79
2023/04/11 03:29:31;;;;;;;6.47;2.78;;;;;;;11.20;40.45;100617.75;4996993;28;20046;-79
2023/04/11 03:32:09;;;;;;;7.32;2.25;;;;;;;11.18;40.48;100612.41;4997544;28;20043;-79
2023/04/11 03:34:37;;;;;;;8.85;2.17;;;;;;;11.18;40.25;100614.28;5013632;28;20465;-79
2023/04/11 03:37:08;;;;;;;7.20;1.92;;;;;;;11.17;40.69;100616.16;5000972;28;20125;-78
2023/04/11 03:39:39;;;;;;;5.45;2.10;;;;;;;11.16;40.66;100611.69;4999075;28;20457;-78
2023/04/11 03:42:07;;;;;;;8.95;2.40;;;;;;;11.14;40.06;100616.44;5016573;28;20085;-77
2023/04/11 03:44:35;;;;;;;7.88;2.45;;;;;;;11.12;40.06;100623.97;5015959;28;20041;-78
2023/04/11 03:47:03;;;;;;;6.45;2.40;;;;;;;11.12;40.36;100629.44;5008645;28;20042;-78
2023/04/11 03:49:39;;;;;;;6.07;2.08;;;;;;;11.11;40.33;100632.31;5002976;28;20045;-78
2023/04/11 03:52:08;;;;;;;7.10;3.03;;;;;;;11.09;40.32;100640.66;5010466;28;20124;-78
2023/04/11 03:54:39;;;;;;;6.13;2.15;;;;;;;11.10;40.11;100638.78;5010086;28;20050;-80
2023/04/11 03:57:10;;;;;;;8.52;2.10;;;;;;;11.07;40.63;100639.94;4995833;28;20065;-79
2023/04/11 03:59:38;;;;;;;6.45;2.25;;;;;;;11.07;40.51;100644.53;5014321;28;20052;-79
2023/04/11 04:02:09;;;;;;;6.55;1.92;;;;;;;11.05;40.51;100649.31;5013238;28;20054;-79
2023/04/11 04:04:45;;;;;;;10.13;2.17;;;;;;;11.04;40.70;100653.94;5016214;28;20042;-80
2023/04/11 04:07:24;;;;;;;7.05;1.95;;;;;;;11.02;40.26;100658.69;5006219;28;20081;-80
2023/04/11 04:09:59;;;;;;;5.45;2.05;;;;;;;11.02;40.14;100669.63;4993515;28;20066;-80
2023/04/11 04:12:27;;;;;;;5.65;1.95;;;;;;;11.00;40.26;100660.69;5013248;28;20106;-80
2023/04/11 04:15:15;;;;;;;5.00;1.95;;;;;;;10.96;40.63;100657.38;5016760;28;20100;-80
2023/04/11 04:17:47;;;;;;;6.95;2.08;;;;;;;10.95;40.73;100652.03;5019472;28;20078;-78
2023/04/11 04:20:25;;;;;;;5.70;2.05;;;;;;;10.94;41.13;100658.53;5018394;28;20049;-80
2023/04/11 04:22:59;;;;;;;8.13;2.00;;;;;;;10.91;41.18;100653.31;5010113;28;20073;-80
2023/04/11 04:25:40;;;;;;;6.88;2.33;;;;;;;10.92;41.19;100655.91;5008646;28;20355;-80
2023/04/11 04:28:11;;;;;;;7.22;2.10;;;;;;;10.89;40.77;100652.63;4991878;28;20124;-79
2023/04/11 04:30:40;;;;;;;8.35;2.30;;;;;;;10.91;40.95;100658.78;5019062;28;20042;-79
2023/04/11 04:33:13;;;;;;;4.55;2.00;;;;;;;10.91;41.12;100661.53;5023764;28;20038;-80
2023/04/11 04:35:46;;;;;;;7.45;2.00;;;;;;;10.89;40.89;100663.56;4993763;28;20057;-79
2023/04/11 04:38:16;;;;;;;8.80;2.00;;;;;;;10.88;40.81;100670.06;5007379;28;20419;-79
2023/04/11 04:40:49;;;;;;;7.40;2.17;;;;;;;10.87;41.03;100669.19;5009145;28;20117;-80
2023/04/11 04:43:22;;;;;;;4.93;2.05;;;;;;;10.89;41.26;100680.88;4994547;28;20101;-80
2023/04/11 04:46:10;;;;;;;4.82;1.80;;;;;;;10.86;40.81;100667.44;5012095;28;20041;-80
2023/04/11 04:48:46;;;;;;;5.35;1.95;;;;;;;10.86;41.08;100677.53;4992529;28;20049;-80
2023/04/11 04:51:14;;;;;;;7.78;2.35;;;;;;;10.86;40.91;100685.75;5000645;28;20039;-80
2023/04/11 04:53:42;;;;;;;6.55;1.90;;;;;;;10.83;40.78;100689.63;5001602;28;20066;-80
2023/04/11 04:56:12;;;;;;;7.43;1.80;;;;;;;10.84;40.79;100690.47;4995468;28;20042;-80
2023/04/11 04:58:46;;;;;;;5.20;1.90;;;;;;;10.81;40.75;100693.53;4988690;28;20042;-80
2023/04/11 05:01:16;;;;;;;6.18;1.80;;;;;;;10.79;41.01;100696.41;4999514;28;20043;-80
2023/04/11 05:03:49;;;;;;;6.75;2.10;;;;;;;10.78;41.00;100699.25;4993806;28;20088;-80
2023/04/11 05:06:27;;;;;;;5.82;2.00;;;;;;;10.78;40.75;100702.00;4992200;28;20050;-80
2023/04/11 05:08:57;;;;;;;5.18;1.80;;;;;;;10.77;40.76;100705.75;5010812;28;20042;-80
2023/04/11 05:11:27;;;;;;;8.57;1.90;;;;;;;10.77;41.07;100703.00;4981945;28;20050;-81
2023/04/11 05:13:55;;;;;;;8.90;2.38;;;;;;;10.75;41.02;100703.13;4995193;28;20581;-80
2023/04/11 05:16:23;;;;;;;6.35;2.50;;;;;;;10.74;40.74;100711.47;4972236;28;20087;-80
2023/04/11 05:18:51;;;;;;;6.32;2.20;;;;;;;10.71;40.32;100715.38;4980519;28;20080;-80
2023/04/11 05:21:19;;;;;;;6.03;1.92;;;;;;;10.69;40.72;100716.53;4984546;28;20049;-83
2023/04/11 05:23:50;;;;;;;6.82;1.88;;;;;;;10.65;41.14;100713.19;5004631;28;20048;-80
2023/04/11 05:26:19;;;;;;;7.03;2.28;;;;;;;10.63;41.11;100722.56;4998441;28;20073;-79
2023/04/11 05:28:48;;;;;;;8.18;2.00;;;;;;;10.60;41.02;100719.09;5017341;28;20038;-81
2023/04/11 05:31:19;;;;;;;;;;;;;;;10.35;41.79;100732.31;5002678;28;20065;-78
2023/04/11 05:33:48;;;;;;;8.90;1.67;;;;;;;10.53;41.53;100734.31;4999675;28;20333;-78
2023/04/11 05:36:16;;;;;;;7.35;2.28;;;;;;;10.57;41.23;100735.78;4988497;28;20074;-78
2023/04/11 05:38:45;;;;;;;7.47;1.75;;;;;;;10.56;41.32;100742.28;5015825;28;20065;-79
2023/04/11 05:41:13;;;;;;;5.90;1.85;;;;;;;10.55;41.74;100740.53;5009420;28;20056;-79
2023/04/11 05:43:40;;;;;;;6.32;1.77;;;;;;;10.55;41.31;100753.34;5009548;28;20274;-79
2023/04/11 05:46:11;;;;;;;6.15;2.33;;;;;;;10.55;41.50;100743.28;4995039;28;20050;-79
2023/04/11 05:48:40;;;;;;;6.90;1.80;;;;;;;10.54;41.51;100752.47;5009854;28;20062;-79
2023/04/11 05:51:09;;;;;;;9.65;2.33;;;;;;;10.55;41.61;100759.69;5015474;28;20049;-78
2023/04/11 05:53:37;;;;;;;5.97;2.22;;;;;;;10.55;41.94;100756.97;5005357;28;20096;-78
2023/04/11 05:56:05;;;;;;;8.85;1.88;;;;;;;10.57;41.33;100765.88;4978787;28;20064;-79
2023/04/11 05:58:35;;;;;;;5.47;2.08;;;;;;;10.57;41.30;100771.34;4990788;28;20132;-79
2023/04/11 06:01:06;;;;;;;6.80;2.17;;;;;;;10.57;41.85;100773.22;4991596;28;20042;-80
2023/04/11 06:03:35;;;;;;;5.75;1.73;;;;;;;10.56;41.74;100776.97;5010725;28;20136;-81
2023/04/11 06:06:16;;;;;;;5.68;2.05;;;;;;;10.54;42.33;100784.44;5003699;28;20038;-81
2023/04/11 06:08:44;;;;;;;7.70;2.47;;;;;;;10.52;41.57;100792.75;5021788;28;20538;-74
2023/04/11 06:11:12;;;;;;;7.43;2.33;;;;;;;10.51;41.34;100796.50;5028268;28;20140;-74
2023/04/11 06:13:40;;;;;;;7.70;2.30;;;;;;;10.51;41.80;100796.50;5027615;28;20163;-74
2023/04/11 06:16:08;;;;;;;7.57;2.00;;;;;;;10.53;41.61;100801.84;5034568;28;20451;-71
2023/04/11 06:18:38;;;;;;;8.93;2.38;;;;;;;10.54;41.60;100800.88;5038097;28;20041;-73
2023/04/11 06:21:06;;;;;;;6.03;2.15;;;;;;;10.53;42.01;100810.03;5013254;28;20062;-74
2023/04/11 06:23:34;;;;;;;5.90;2.17;;;;;;;10.54;41.74;100803.59;5029504;28;20096;-73
2023/04/11 06:26:02;;;;;;;6.32;2.15;;;;;;;10.55;42.05;100808.94;5015356;28;20048;-73
2023/04/11 06:28:30;;;;;;;5.80;2.35;;;;;;;10.57;41.56;100817.88;5027535;28;20059;-73
2023/04/11 06:30:58;;;;;;;5.97;1.83;;;;;;;10.60;42.00;100817.59;5026658;28;20076;-73
2023/04/11 06:33:26;;;;;;;4.93;2.05;;;;;;;10.64;41.63;100822.81;5028242;28;20041;-72
2023/04/11 06:35:55;;;;;;;8.43;2.30;;;;;;;10.68;41.77;100827.00;5027273;28;20041;-75
2023/04/11 06:38:23;;;;;;;7.53;2.67;;;;;;;10.69;41.54;100820.53;5012218;28;20100;-72
2023/04/11 06:40:53;;;;;;;6.78;2.42;;;;;;;10.70;41.20;100825.88;5028577;28;20393;-74
2023/04/11 06:43:21;;;;;;;4.47;1.98;;;;;;;10.71;41.33;100833.09;5012019;28;20049;-75
2023/04/11 06:45:50;;;;;;;6.18;2.33;;;;;;;10.73;41.10;100833.78;5028514;28;20111;-74
2023/04/11 06:48:19;;;;;;;5.57;2.15;;;;;;;10.74;40.90;100845.63;5027990;28;20052;-74
2023/04/11 06:50:48;;;;;;;8.00;2.47;;;;;;;10.75;41.49;100839.13;5024806;28;20088;-74
2023/04/11 06:53:17;;;;;;;6.75;2.30;;;;;;;10.77;40.70;100845.34;5003739;28;20053;-74
2023/04/11 06:55:48;;;;;;;5.43;2.08;;;;;;;10.77;41.02;100840.75;5028163;28;20064;-70
2023/04/11 06:58:16;;;;;;;7.25;2.33;;;;;;;10.74;41.10;100846.47;5011839;28;20045;-71
2023/04/11 07:00:44;;;;;;;5.15;2.15;;;;;;;10.75;41.07;100852.81;5030488;28;20042;-75
2023/04/11 07:03:12;;;;;;;6.57;2.40;;;;;;;10.76;40.69;100851.81;5010198;28;20538;-74
2023/04/11 07:05:40;;;;;;;6.70;2.17;;;;;;;10.77;40.58;100854.44;5030762;28;20037;-75
2023/04/11 07:08:08;;;;;;;4.93;2.08;;;;;;;10.79;40.68;100846.09;5027497;28;20037;-75
2023/04/11 07:10:38;;;;;;;6.60;2.25;;;;;;;10.81;41.13;100849.56;5004418;28;20052;-72
2023/04/11 07:13:06;;;;;;;5.20;1.90;;;;;;;10.81;40.59;100855.88;5027355;28;20045;-73
2023/04/11 07:15:34;;;;;;;9.52;2.42;;;;;;;10.82;40.58;100862.22;5021631;28;20033;-71
2023/04/11 07:18:02;;;;;;;5.32;2.03;;;;;;;10.84;40.51;100871.19;5021725;28;20065;-71
2023/04/11 07:20:31;;;;;;;6.30;2.08;;;;;;;10.84;40.76;100872.03;5021811;28;20064;-71
2023/04/11 07:22:59;;;;;;;7.03;2.38;;;;;;;10.86;40.29;100871.91;5025616;28;20077;-71
2023/04/11 07:25:29;;;;;;;6.68;2.17;;;;;;;10.88;40.82;100886.34;5036273;28;20128;-73
2023/04/11 07:27:59;;;;;;;5.43;1.95;;;;;;;10.88;40.33;100870.78;5011032;28;20072;-75
2023/04/11 07:30:27;;;;;;;4.97;1.70;;;;;;;10.90;40.02;100878.84;5007528;28;20038;-73
2023/04/11 07:32:55;;;;;;;5.57;1.90;;;;;;;10.89;40.48;100872.53;5023928;28;20042;-73
2023/04/11 07:35:24;;;;;;;6.32;1.70;;;;;;;10.92;40.49;100879.59;5005448;28;20050;-71
2023/04/11 07:37:52;;;;;;;5.90;2.20;;;;;;;10.94;40.60;100880.31;5024747;28;20112;-74
2023/04/11 07:40:20;;;;;;;5.18;1.77;;;;;;;10.97;40.32;100880.06;5019443;28;21359;-75
2023/04/11 07:42:48;;;;;;;5.10;1.80;;;;;;;11.00;40.54;100879.75;5008328;28;20777;-76
2023/04/11 07:45:18;;;;;;;4.70;1.70;;;;;;;11.07;40.46;100880.94;5023707;28;20073;-70
2023/04/11 07:47:46;;;;;;;4.72;1.52;;;;;;;11.12;40.43;100886.03;5025851;28;20096;-72
2023/04/11 07:50:14;;;;;;;5.10;1.60;;;;;;;11.18;40.94;100885.47;5026261;28;20542;-72
2023/04/11 07:52:42;;;;;;;5.05;1.63;;;;;;;11.24;40.22;100876.69;5026163;28;20132;-73
2023/04/11 07:55:10;;;;;;;6.07;1.75;;;;;;;11.31;40.50;100884.22;5024768;28;20535;-74
2023/04/11 07:57:38;;;;;;;5.80;1.52;;;;;;;11.36;40.18;100887.44;5024832;28;20096;-74
2023/04/11 08:00:21;;;;;;;5.40;1.88;;;;;;;11.44;39.31;100873.03;5026318;28;20037;-72
2023/04/11 08:02:49;;;;;;;5.13;1.70;;;;;;;11.43;39.96;100881.38;5021823;28;20133;-75
2023/04/11 08:05:18;;;;;;;5.55;2.10;;;;;;;11.52;39.75;100880.53;5023219;28;20459;-73
2023/04/11 08:07:46;;;;;;;5.32;1.80;;;;;;;11.56;39.42;100888.34;5022421;28;20049;-73
2023/04/11 08:10:14;;;;;;;3.78;1.40;;;;;;;11.60;39.16;100895.28;5003650;28;20038;-74
2023/04/11 08:12:42;;;;;;;5.43;1.80;;;;;;;11.64;39.42;100891.28;5022788;28;20111;-73
2023/04/11 08:15:10;;;;;;;4.82;1.30;;;;;;;11.68;39.22;100897.34;5022382;28;20045;-72
2023/04/11 08:17:42;;;;;;;4.57;1.45;;;;;;;11.74;38.69;100896.78;5008491;28;20412;-72
2023/04/11 08:20:11;;;;;;;5.83;1.50;;;;;;;11.77;39.14;100893.78;5026245;28;20692;-75
2023/04/11 08:22:40;;;;;;;3.58;1.50;;;;;;;11.83;38.56;100903.28;5008706;28;20419;-75
2023/04/11 08:25:09;;;;;;;3.83;1.30;;;;;;;11.90;38.50;100907.19;5023671;28;20096;-73
2023/04/11 08:27:37;;;;;;;5.45;1.42;;;;;;;11.93;38.47;100905.06;5027625;28;20052;-74
2023/04/11 08:30:07;;;;;;;5.95;1.30;;;;;;;11.97;38.82;100916.59;5022615;28;20108;-74
2023/04/11 08:32:35;;;;;;;4.10;1.45;;;;;;;12.00;38.28;100908.97;5023340;28;20046;-73
2023/04/11 08:35:05;;;;;;;5.85;1.17;;;;;;;12.04;38.19;100907.69;5004022;28;20061;-73
2023/04/11 08:37:33;;;;;;;4.25;1.42;;;;;;;12.05;38.08;100908.53;5006272;28;20135;-74
2023/04/11 08:40:01;;;;;;;4.38;1.40;;;;;;;12.07;38.64;100912.88;5024362;28;20482;-74
2023/04/11 08:42:29;;;;;;;2.63;1.20;;;;;;;12.10;37.90;100908.97;5019549;28;20052;-73
2023/04/11 08:44:59;;;;;;;3.35;1.30;;;;;;;12.11;38.41;100914.31;5024682;28;20120;-74
2023/04/11 08:47:27;;;;;;;4.35;1.23;;;;;;;12.13;38.21;100918.81;5024204;28;20580;-73
2023/04/11 08:49:56;;;;;;;5.07;1.20;;;;;;;12.12;37.77;100915.19;5028613;28;20107;-75
2023/04/11 08:52:25;;;;;;;3.83;1.20;;;;;;;12.16;37.86;100921.25;5010214;28;20059;-73
2023/04/11 08:54:54;;;;;;;3.60;1.10;;;;;;;12.17;38.07;100929.34;5010995;28;20441;-74
2023/04/11 08:57:26;;;;;;;6.63;1.58;;;;;;;12.18;37.54;100924.72;5019743;28;20420;-74
2023/04/11 08:59:55;;;;;;;4.22;1.67;;;;;;;12.16;37.88;100924.84;5028697;28;20080;-75
2023/04/11 09:02:23;;;;;;;4.40;1.20;;;;;;;12.18;37.33;100920.09;5024985;28;20041;-73
2023/04/11 09:04:51;;;;;;;3.47;1.30;;;;;;;12.19;37.08;100927.31;5011045;28;20136;-73
2023/04/11 09:07:20;;;;;;;3.88;1.13;;;;;;;12.21;37.40;100933.53;5026985;28;20053;-72
2023/04/11 09:09:50;;;;;;;4.05;1.05;;;;;;;12.23;36.97;100926.00;5025908;28;20033;-74
2023/04/11 09:12:27;;;;;;;3.53;1.13;;;;;;;12.26;35.97;100927.63;5023300;28;20489;-72
2023/04/11 09:14:56;;;;;;;4.20;1.15;;;;;;;12.24;36.07;100926.88;5009714;28;20512;-73
2023/04/11 09:17:24;;;;;;;3.05;1.02;;;;;;;12.23;35.90;100926.00;5026011;28;20050;-73
2023/04/11 09:19:52;;;;;;;3.80;1.30;;;;;;;12.24;36.31;100926.88;5024138;28;20041;-72
2023/04/11 09:22:20;;;;;;;3.53;1.40;;;;;;;12.24;35.79;100926.88;5004545;28;20336;-74
2023/04/11 09:25:02;;;;;;;5.65;1.58;;;;;;;12.26;35.41;100931.22;5027691;28;20041;-74
2023/04/11 09:27:30;;;;;;;2.67;1.00;;;;;;;12.26;36.24;100911.16;4990393;28;20444;-75
2023/04/11 09:29:58;;;;;;;3.92;1.50;;;;;;;12.26;36.09;100920.25;5010387;28;20408;-74
2023/04/11 09:32:28;;;;;;;3.45;1.20;;;;;;;12.31;35.85;100922.53;5001821;28;20101;-74
2023/04/11 09:35:10;;;;;;;4.07;1.30;;;;;;;12.34;35.49;100917.66;4994757;28;20072;-73
2023/04/11 09:37:43;;;;;;;4.55;1.75;;;;;;;12.38;35.26;100919.06;5008441;28;20050;-74
2023/04/11 09:40:15;;;;;;;4.00;1.15;;;;;;;12.43;35.62;100926.91;5008482;28;20026;-75
2023/04/11 09:42:43;;;;;;;3.67;1.10;;;;;;;12.45;35.42;100922.13;5025690;28;20057;-72
2023/04/11 09:45:19;;;;;;;3.17;1.25;;;;;;;12.52;33.96;100926.03;5027854;28;20052;-74
2023/04/11 09:47:48;;;;;;;4.35;1.52;;;;;;;12.54;35.16;100924.00;5010043;28;20505;-72
2023/04/11 09:50:17;;;;;;;4.15;1.10;;;;;;;12.58;35.12;100921.81;5029796;28;20076;-75
2023/04/11 09:52:46;;;;;;;6.40;1.60;;;;;;;12.59;35.29;100926.31;5014351;28;20057;-72
2023/04/11 09:55:19;;;;;;;4.82;1.50;;;;;;;12.62;34.36;100932.41;5045367;28;20051;-74
2023/04/11 09:57:48;;;;;;;2.92;1.08;;;;;;;12.63;34.92;100933.25;5008683;28;20060;-72
2023/04/11 10:00:20;;;;;;;2.72;1.20;;;;;;;12.65;34.39;100918.38;5028480;28;20591;-72
2023/04/11 10:02:51;;;;;;;3.97;1.15;;;;;;;12.64;34.65;100940.47;5006496;28;20109;-73
2023/04/11 10:05:24;;;;;;;1.67;1.00;;;;;;;12.66;34.40;100943.97;4992475;28;20057;-74
2023/04/11 10:08:12;;;;;;;2.33;1.10;;;;;;;12.68;34.17;100940.06;5029043;28;20045;-74
2023/04/11 10:10:43;;;;;;;2.72;1.15;;;;;;;12.69;34.61;100943.69;5009666;28;20441;-73
2023/04/11 10:13:41;;;;;;;5.22;1.30;;;;;;;12.72;33.26;100933.25;5008290;28;20072;-73
2023/04/11 10:16:12;;;;;;;3.35;1.05;;;;;;;12.75;34.88;100949.44;5024890;28;20501;-73
2023/04/11 10:19:22;;;;;;;3.22;1.55;;;;;;;12.79;33.42;100926.16;5030275;28;20057;-74
2023/04/11 10:21:51;;;;;;;2.88;1.20;;;;;;;12.84;33.85;100950.44;5021461;28;20141;-73
2023/04/11 10:24:20;;;;;;;3.13;1.00;;;;;;;12.92;34.22;100961.56;5015741;28;20057;-70
2023/04/11 10:26:51;;;;;;;4.03;1.25;;;;;;;13.00;32.49;100958.09;5022026;28;20057;-71
2023/04/11 10:29:49;;;;;;;3.03;1.35;;;;;;;13.03;31.73;100966.91;5020028;28;20160;-71
2023/04/11 10:32:28;;;;;;;3.38;1.30;;;;;;;13.08;32.45;100960.94;5019536;28;20076;-71
2023/04/11 10:35:24;;;;;;;3.25;1.20;;;;;;;13.08;32.27;100969.19;5013192;28;20037;-71
2023/04/11 10:37:52;;;;;;;3.03;1.20;;;;;;;13.11;33.18;100972.53;5003231;28;20038;-71
2023/04/11 10:40:20;;;;;;;4.63;1.58;;;;;;;13.17;32.76;100960.94;5003418;28;20049;-71
2023/04/11 10:42:50;;;;;;;4.18;1.70;;;;;;;13.25;32.70;100966.56;5024865;28;20069;-71
2023/04/11 10:45:23;;;;;;;3.67;2.08;;;;;;;13.33;32.31;100959.44;5005850;28;20057;-71
2023/04/11 10:48:09;;;;;;;2.85;1.48;;;;;;;13.36;31.19;100968.25;5005112;28;20046;-71
2023/04/11 10:50:40;;;;;;;3.95;1.67;;;;;;;13.38;32.26;100974.44;5018002;28;20136;-71
2023/04/11 10:53:13;;;;;;;2.70;1.50;;;;;;;13.40;32.45;100966.94;5018711;28;20068;-71
2023/04/11 10:55:48;;;;;;;3.75;1.48;;;;;;;13.42;30.99;100961.28;5024770;28;20057;-71
2023/04/11 10:58:21;;;;;;;3.83;1.73;;;;;;;13.42;32.06;100964.03;5022744;28;20061;-71
2023/04/11 11:01:26;;;;;;;4.10;1.63;;;;;;;13.40;30.88;100960.56;5019052;28;20140;-74
2023/04/11 11:04:09;;;;;;;3.22;1.20;;;;;;;13.40;32.10;100960.56;5022912;28;20471;-69
2023/04/11 11:06:38;;;;;;;4.50;1.40;;;;;;;13.44;31.94;100962.00;5022281;28;20468;-69
2023/04/11 11:09:22;;;;;;;3.75;1.45;;;;;;;13.44;31.87;100962.00;5003497;28;20052;-74
2023/04/11 11:12:06;;;;;;;3.03;1.52;;;;;;;13.45;29.90;100956.34;5020087;28;20068;-73
2023/04/11 11:14:35;;;;;;;3.45;1.60;;;;;;;13.47;31.80;100953.44;5024055;28;20046;-68
2023/04/11 11:17:04;;;;;;;2.95;1.40;;;;;;;13.51;31.51;100955.75;5018626;28;20045;-69
2023/04/11 11:19:32;;;;;;;5.35;1.55;;;;;;;13.54;31.92;100951.81;5025223;28;20045;-68
2023/04/11 11:22:02;;;;;;;3.30;1.48;;;;;;;13.58;31.76;100948.66;5015439;28;20132;-69
2023/04/11 11:24:31;;;;;;;3.10;1.63;;;;;;;13.62;31.30;100955.56;5024373;28;20049;-69
2023/04/11 11:26:59;;;;;;;3.25;1.50;;;;;;;13.68;31.37;100953.25;5022097;28;20059;-68
2023/04/11 11:29:31;;;;;;;3.53;1.58;;;;;;;13.72;30.87;100963.78;5019860;28;20048;-71
2023/04/11 11:32:02;;;;;;;3.47;1.20;;;;;;;13.73;30.63;100971.03;5006463;28;20045;-69
2023/04/11 11:34:31;;;;;;;3.30;1.40;;;;;;;13.77;31.17;100966.09;5026591;28;20037;-69
2023/04/11 11:37:03;;;;;;;3.08;1.58;;;;;;;13.79;30.95;100961.28;5018299;28;20058;-70
2023/04/11 11:39:32;;;;;;;;;;;;;;;13.53;31.32;100966.59;5027732;28;20087;-70
2023/04/11 11:42:02;;;;;;;3.30;1.13;;;;;;;13.76;30.84;100961.59;5010639;28;19921;-71